createdAt,value
2023-02-16T00:00:32.406Z,638.00
2023-02-16T00:01:32.367Z,635.00
2023-02-16T00:02:32.483Z,635.00
2023-02-16T00:03:32.416Z,640.00
2023-02-16T00:04:32.365Z,643.00
2023-02-16T00:05:32.388Z,651.00
2023-02-16T00:06:32.360Z,647.00
2023-02-16T00:07:32.356Z,639.00
2023-02-16T00:08:32.380Z,644.00
2023-02-16T00:09:32.357Z,639.00
2023-02-16T00:10:32.377Z,634.00
2023-02-16T00:11:32.362Z,647.00
2023-02-16T00:12:32.348Z,633.00
2023-02-16T00:13:32.350Z,627.00
2023-02-16T00:14:32.344Z,640.00
2023-02-16T00:15:32.388Z,640.00
2023-02-16T00:16:32.333Z,641.00
2023-02-16T00:17:32.342Z,638.00
2023-02-16T00:18:32.324Z,640.00
2023-02-16T00:19:32.314Z,636.00
2023-02-16T00:20:32.323Z,638.00
2023-02-16T00:21:32.318Z,642.00
2023-02-16T00:22:32.318Z,650.00
2023-02-16T00:23:32.316Z,641.00
2023-02-16T00:24:32.299Z,628.00
2023-02-16T00:25:32.332Z,635.00
2023-02-16T00:26:32.312Z,642.00
2023-02-16T00:27:32.317Z,647.00
2023-02-16T00:28:32.318Z,644.00
2023-02-16T00:29:32.308Z,620.00
2023-02-16T00:30:32.338Z,614.00
2023-02-16T00:31:32.495Z,625.00
2023-02-16T00:32:32.307Z,634.00
2023-02-16T00:33:32.321Z,639.00
2023-02-16T00:34:32.303Z,624.00
2023-02-16T00:35:32.301Z,611.00
2023-02-16T00:36:32.312Z,613.00
2023-02-16T00:37:32.307Z,629.00
2023-02-16T00:38:32.312Z,633.00
2023-02-16T00:39:32.308Z,636.00
2023-02-16T00:40:32.312Z,627.00
2023-02-16T00:41:32.298Z,618.00
2023-02-16T00:42:32.290Z,624.00
2023-02-16T00:43:32.309Z,623.00
2023-02-16T00:44:32.296Z,632.00
2023-02-16T00:45:32.297Z,632.00
2023-02-16T00:46:32.391Z,606.00
2023-02-16T00:47:32.286Z,602.00
2023-02-16T00:48:32.304Z,615.00
2023-02-16T00:49:32.289Z,621.00
2023-02-16T00:50:32.430Z,634.00
2023-02-16T00:51:32.293Z,609.00
2023-02-16T00:52:32.291Z,610.00
2023-02-16T00:53:32.295Z,614.00
2023-02-16T00:54:32.297Z,619.00
2023-02-16T00:55:32.287Z,629.00
2023-02-16T00:56:32.282Z,639.00
2023-02-16T00:57:32.282Z,625.00
2023-02-16T00:58:32.274Z,613.00
2023-02-16T00:59:32.282Z,609.00
2023-02-16T01:00:32.259Z,615.00
2023-02-16T01:01:32.332Z,626.00
2023-02-16T01:02:32.254Z,623.00
2023-02-16T01:03:32.260Z,603.00
2023-02-16T01:04:32.387Z,601.00
2023-02-16T01:05:32.238Z,611.00
2023-02-16T01:06:32.228Z,617.00
2023-02-16T01:07:32.215Z,627.00
2023-02-16T01:08:32.220Z,621.00
2023-02-16T01:09:32.218Z,617.00
2023-02-16T01:10:32.210Z,616.00
2023-02-16T01:11:32.209Z,620.00
2023-02-16T01:12:32.205Z,627.00
2023-02-16T01:13:32.199Z,634.00
2023-02-16T01:14:32.189Z,615.00
2023-02-16T01:15:32.213Z,599.00
2023-02-16T01:16:32.183Z,612.00
2023-02-16T01:17:32.187Z,625.00
2023-02-16T01:18:32.179Z,627.00
2023-02-16T01:19:32.179Z,608.00
2023-02-16T01:20:32.166Z,602.00
2023-02-16T01:21:32.180Z,599.00
2023-02-16T01:22:32.172Z,613.00
2023-02-16T01:23:32.182Z,620.00
2023-02-16T01:24:32.155Z,632.00
2023-02-16T01:25:32.161Z,606.00
2023-02-16T01:26:32.164Z,599.00
2023-02-16T01:27:32.155Z,607.00
2023-02-16T01:28:32.155Z,611.00
2023-02-16T01:29:32.160Z,618.00
2023-02-16T01:30:32.217Z,622.00
2023-02-16T01:31:32.237Z,611.00
2023-02-16T01:32:32.146Z,616.00
2023-02-16T01:33:32.139Z,622.00
2023-02-16T01:34:32.134Z,626.00
2023-02-16T01:35:32.137Z,625.00
2023-02-16T01:36:32.126Z,624.00
2023-02-16T01:37:32.134Z,608.00
2023-02-16T01:38:32.135Z,612.00
2023-02-16T01:39:32.129Z,626.00
2023-02-16T01:40:32.111Z,626.00
2023-02-16T01:41:32.119Z,626.00
2023-02-16T01:42:32.121Z,621.00
2023-02-16T01:43:32.140Z,623.00
2023-02-16T01:44:32.124Z,621.00
2023-02-16T01:45:32.137Z,626.00
2023-02-16T01:46:32.249Z,628.00
2023-02-16T01:47:32.124Z,623.00
2023-02-16T01:48:32.121Z,616.00
2023-02-16T01:49:32.126Z,620.00
2023-02-16T01:50:32.128Z,623.00
2023-02-16T01:51:32.126Z,631.00
2023-02-16T01:52:32.124Z,636.00
2023-02-16T01:53:32.137Z,614.00
2023-02-16T01:54:32.201Z,601.00
2023-02-16T01:55:32.122Z,600.00
2023-02-16T01:56:32.126Z,613.00
2023-02-16T01:57:32.114Z,618.00
2023-02-16T01:58:32.119Z,625.00
2023-02-16T01:59:32.114Z,612.00
2023-02-16T02:00:32.108Z,615.00
2023-02-16T02:01:32.171Z,622.00
2023-02-16T02:02:32.146Z,623.00
2023-02-16T02:03:32.096Z,632.00
2023-02-16T02:04:32.092Z,632.00
2023-02-16T02:05:32.085Z,622.00
2023-02-16T02:06:32.087Z,622.00
2023-02-16T02:07:32.096Z,624.00
2023-02-16T02:08:32.096Z,626.00
2023-02-16T02:09:32.087Z,634.00
2023-02-16T02:10:32.088Z,626.00
2023-02-16T02:11:32.094Z,625.00
2023-02-16T02:12:32.115Z,626.00
2023-02-16T02:13:32.095Z,631.00
2023-02-16T02:14:32.092Z,632.00
2023-02-16T02:15:32.088Z,633.00
2023-02-16T02:16:32.094Z,625.00
2023-02-16T02:17:32.093Z,614.00
2023-02-16T02:18:32.084Z,615.00
2023-02-16T02:19:32.082Z,626.00
2023-02-16T02:20:32.082Z,634.00
2023-02-16T02:21:32.095Z,627.00
2023-02-16T02:22:32.090Z,619.00
2023-02-16T02:23:32.096Z,623.00
2023-02-16T02:24:32.074Z,625.00
2023-02-16T02:25:32.082Z,632.00
2023-02-16T02:26:32.078Z,644.00
2023-02-16T02:27:32.083Z,626.00
2023-02-16T02:28:32.070Z,608.00
2023-02-16T02:29:32.082Z,615.00
2023-02-16T02:30:32.174Z,618.00
2023-02-16T02:31:32.156Z,622.00
2023-02-16T02:32:32.101Z,634.00
2023-02-16T02:33:32.067Z,617.00
2023-02-16T02:34:32.076Z,616.00
2023-02-16T02:35:32.072Z,619.00
2023-02-16T02:36:32.071Z,622.00
2023-02-16T02:37:32.080Z,631.00
2023-02-16T02:38:32.075Z,623.00
2023-02-16T02:39:32.056Z,613.00
2023-02-16T02:40:32.065Z,611.00
2023-02-16T02:41:32.048Z,615.00
2023-02-16T02:42:32.052Z,625.00
2023-02-16T02:43:32.043Z,637.00
2023-02-16T02:44:32.051Z,614.00
2023-02-16T02:45:32.056Z,612.00
2023-02-16T02:46:32.098Z,615.00
2023-02-16T02:47:32.034Z,625.00
2023-02-16T02:48:32.036Z,626.00
2023-02-16T02:49:32.035Z,630.00
2023-02-16T02:50:32.041Z,612.00
2023-02-16T02:51:32.056Z,606.00
2023-02-16T02:52:32.031Z,616.00
2023-02-16T02:53:32.032Z,624.00
2023-02-16T02:54:32.042Z,631.00
2023-02-16T02:55:32.024Z,631.00
2023-02-16T02:56:32.041Z,618.00
2023-02-16T02:57:32.026Z,623.00
2023-02-16T02:58:32.034Z,617.00
2023-02-16T02:59:32.018Z,627.00
2023-02-16T03:00:32.043Z,636.00
2023-02-16T03:01:32.025Z,619.00
2023-02-16T03:02:32.023Z,612.00
2023-02-16T03:03:32.050Z,618.00
2023-02-16T03:04:32.023Z,621.00
2023-02-16T03:05:32.027Z,627.00
2023-02-16T03:06:32.032Z,634.00
2023-02-16T03:07:32.020Z,609.00
2023-02-16T03:08:32.019Z,579.00
2023-02-16T03:09:32.021Z,591.00
2023-02-16T03:10:32.025Z,612.00
2023-02-16T03:11:32.019Z,622.00
2023-02-16T03:12:32.051Z,621.00
2023-02-16T03:13:32.027Z,592.00
2023-02-16T03:14:32.129Z,590.00
2023-02-16T03:15:32.009Z,601.00
2023-02-16T03:16:32.038Z,609.00
2023-02-16T03:17:32.007Z,622.00
2023-02-16T03:18:32.022Z,626.00
2023-02-16T03:19:32.010Z,628.00
2023-02-16T03:20:32.010Z,627.00
2023-02-16T03:21:32.013Z,623.00
2023-02-16T03:22:32.024Z,623.00
2023-02-16T03:23:32.016Z,631.00
2023-02-16T03:24:32.006Z,618.00
2023-02-16T03:25:31.988Z,615.00
2023-02-16T03:26:31.980Z,608.00
2023-02-16T03:27:31.981Z,618.00
2023-02-16T03:28:31.983Z,625.00
2023-02-16T03:29:31.981Z,632.00
2023-02-16T03:30:32.085Z,615.00
2023-02-16T03:31:32.100Z,615.00
2023-02-16T03:32:31.980Z,622.00
2023-02-16T03:33:31.980Z,624.00
2023-02-16T03:34:31.968Z,633.00
2023-02-16T03:35:31.983Z,646.00
2023-02-16T03:36:31.961Z,627.00
2023-02-16T03:37:31.954Z,628.00
2023-02-16T03:38:31.957Z,631.00
2023-02-16T03:39:31.958Z,638.00
2023-02-16T03:40:31.971Z,640.00
2023-02-16T03:41:31.963Z,620.00
2023-02-16T03:42:31.948Z,599.00
2023-02-16T03:43:31.971Z,590.00
2023-02-16T03:44:31.947Z,613.00
2023-02-16T03:45:31.944Z,623.00
2023-02-16T03:46:31.969Z,633.00
2023-02-16T03:47:31.935Z,620.00
2023-02-16T03:48:31.936Z,611.00
2023-02-16T03:49:31.941Z,613.00
2023-02-16T03:50:31.942Z,618.00
2023-02-16T03:51:31.936Z,620.00
2023-02-16T03:52:31.929Z,625.00
2023-02-16T03:53:31.928Z,627.00
2023-02-16T03:54:31.941Z,627.00
2023-02-16T03:55:31.930Z,625.00
2023-02-16T03:56:31.939Z,633.00
2023-02-16T03:57:31.933Z,631.00
2023-02-16T03:58:31.939Z,644.00
2023-02-16T03:59:31.940Z,628.00
2023-02-16T04:00:31.943Z,610.00
2023-02-16T04:01:31.943Z,590.00
2023-02-16T04:02:32.068Z,609.00
2023-02-16T04:03:31.966Z,619.00
2023-02-16T04:04:32.001Z,629.00
2023-02-16T04:05:31.948Z,633.00
2023-02-16T04:06:31.945Z,616.00
2023-02-16T04:07:32.009Z,615.00
2023-02-16T04:08:31.939Z,604.00
2023-02-16T04:09:31.954Z,610.00
2023-02-16T04:10:31.947Z,626.00
2023-02-16T04:11:31.940Z,626.00
2023-02-16T04:12:31.945Z,618.00
2023-02-16T04:13:31.968Z,610.00
2023-02-16T04:14:31.974Z,613.00
2023-02-16T04:15:31.961Z,627.00
2023-02-16T04:16:32.022Z,626.00
2023-02-16T04:17:31.923Z,633.00
2023-02-16T04:18:31.929Z,622.00
2023-02-16T04:19:31.924Z,614.00
2023-02-16T04:20:31.932Z,624.00
2023-02-16T04:21:31.905Z,626.00
2023-02-16T04:22:31.893Z,629.00
2023-02-16T04:23:31.885Z,638.00
2023-02-16T04:24:31.901Z,617.00
2023-02-16T04:25:31.916Z,615.00
2023-02-16T04:26:31.897Z,619.00
2023-02-16T04:27:31.877Z,626.00
2023-02-16T04:28:31.875Z,638.00
2023-02-16T04:29:31.878Z,624.00
2023-02-16T04:30:32.023Z,603.00
2023-02-16T04:31:31.997Z,604.00
2023-02-16T04:32:31.870Z,606.00
2023-02-16T04:33:31.853Z,613.00
2023-02-16T04:34:31.846Z,620.00
2023-02-16T04:35:31.844Z,615.00
2023-02-16T04:36:31.845Z,599.00
2023-02-16T04:37:31.835Z,606.00
2023-02-16T04:38:31.821Z,618.00
2023-02-16T04:39:31.818Z,622.00
2023-02-16T04:40:31.863Z,627.00
2023-02-16T04:41:31.804Z,622.00
2023-02-16T04:42:31.805Z,617.00
2023-02-16T04:43:31.790Z,612.00
2023-02-16T04:44:31.794Z,617.00
2023-02-16T04:45:31.796Z,623.00
2023-02-16T04:46:31.790Z,632.00
2023-02-16T04:47:31.792Z,616.00
2023-02-16T04:48:31.783Z,615.00
2023-02-16T04:49:31.791Z,627.00
2023-02-16T04:50:31.837Z,632.00
2023-02-16T04:51:31.787Z,633.00
2023-02-16T04:52:31.773Z,631.00
2023-02-16T04:53:31.773Z,621.00
2023-02-16T04:54:31.778Z,610.00
2023-02-16T04:55:31.813Z,610.00
2023-02-16T04:56:31.774Z,621.00
2023-02-16T04:57:31.771Z,631.00
2023-02-16T04:58:31.755Z,632.00
2023-02-16T04:59:31.750Z,624.00
2023-02-16T05:00:31.750Z,620.00
2023-02-16T05:01:31.768Z,626.00
2023-02-16T05:02:31.742Z,621.00
2023-02-16T05:03:31.747Z,631.00
2023-02-16T05:04:31.814Z,631.00
2023-02-16T05:05:31.737Z,617.00
2023-02-16T05:06:31.725Z,621.00
2023-02-16T05:07:31.724Z,628.00
2023-02-16T05:08:31.734Z,626.00
2023-02-16T05:09:31.729Z,635.00
2023-02-16T05:10:31.744Z,619.00
2023-02-16T05:11:31.726Z,602.00
2023-02-16T05:12:31.727Z,601.00
2023-02-16T05:13:31.727Z,609.00
2023-02-16T05:14:31.712Z,612.00
2023-02-16T05:15:31.781Z,613.00
2023-02-16T05:16:31.705Z,613.00
2023-02-16T05:17:31.705Z,604.00
2023-02-16T05:18:31.709Z,600.00
2023-02-16T05:19:31.727Z,622.00
2023-02-16T05:20:31.708Z,626.00
2023-02-16T05:21:31.704Z,626.00
2023-02-16T05:22:31.735Z,626.00
2023-02-16T05:23:31.699Z,613.00
2023-02-16T05:24:31.690Z,627.00
2023-02-16T05:25:31.681Z,627.00
2023-02-16T05:26:31.687Z,626.00
2023-02-16T05:27:31.690Z,627.00
2023-02-16T05:28:31.712Z,625.00
2023-02-16T05:29:31.684Z,619.00
2023-02-16T05:30:31.768Z,621.00
2023-02-16T05:31:31.766Z,629.00
2023-02-16T05:32:31.659Z,631.00
2023-02-16T05:33:31.654Z,626.00
2023-02-16T05:34:31.652Z,618.00
2023-02-16T05:35:31.649Z,616.00
2023-02-16T05:36:31.656Z,625.00
2023-02-16T05:37:31.643Z,626.00
2023-02-16T05:38:31.667Z,631.00
2023-02-16T05:39:31.648Z,624.00
2023-02-16T05:40:31.657Z,626.00
2023-02-16T05:41:31.655Z,630.00
2023-02-16T05:42:31.642Z,635.00
2023-02-16T05:43:31.642Z,637.00
2023-02-16T05:44:31.648Z,642.00
2023-02-16T05:45:31.658Z,637.00
2023-02-16T05:46:31.745Z,616.00
2023-02-16T05:47:31.643Z,622.00
2023-02-16T05:48:31.652Z,623.00
2023-02-16T05:49:31.662Z,624.00
2023-02-16T05:50:31.681Z,627.00
2023-02-16T05:51:31.660Z,626.00
2023-02-16T05:52:31.651Z,619.00
2023-02-16T05:53:31.651Z,622.00
2023-02-16T05:54:31.659Z,634.00
2023-02-16T05:55:31.648Z,632.00
2023-02-16T05:56:31.645Z,636.00
2023-02-16T05:57:31.641Z,606.00
2023-02-16T05:58:31.646Z,590.00
2023-02-16T05:59:31.643Z,611.00
2023-02-16T06:00:31.640Z,620.00
2023-02-16T06:01:31.635Z,627.00
2023-02-16T06:02:31.638Z,625.00
2023-02-16T06:03:31.738Z,610.00
2023-02-16T06:04:31.619Z,603.00
2023-02-16T06:05:31.619Z,611.00
2023-02-16T06:06:31.621Z,617.00
2023-02-16T06:07:31.620Z,625.00
2023-02-16T06:08:31.638Z,624.00
2023-02-16T06:09:31.626Z,610.00
2023-02-16T06:10:31.620Z,615.00
2023-02-16T06:11:31.629Z,620.00
2023-02-16T06:12:31.603Z,624.00
2023-02-16T06:13:31.602Z,629.00
2023-02-16T06:14:31.601Z,619.00
2023-02-16T06:15:31.597Z,602.00
2023-02-16T06:16:31.580Z,603.00
2023-02-16T06:17:31.587Z,604.00
2023-02-16T06:18:31.572Z,606.00
2023-02-16T06:19:31.583Z,616.00
2023-02-16T06:20:31.575Z,625.00
2023-02-16T06:21:31.580Z,603.00
2023-02-16T06:22:31.584Z,604.00
2023-02-16T06:23:31.636Z,606.00
2023-02-16T06:24:31.584Z,611.00
2023-02-16T06:25:31.596Z,623.00
2023-02-16T06:26:31.589Z,616.00
2023-02-16T06:27:31.570Z,598.00
2023-02-16T06:28:31.561Z,616.00
2023-02-16T06:29:31.561Z,621.00
2023-02-16T06:30:31.662Z,622.00
2023-02-16T06:31:33.221Z,626.00
2023-02-16T06:32:31.689Z,625.00
2023-02-16T06:33:31.563Z,613.00
2023-02-16T06:34:31.559Z,623.00
2023-02-16T06:35:31.563Z,623.00
2023-02-16T06:36:31.591Z,626.00
2023-02-16T06:37:31.574Z,626.00
2023-02-16T06:38:31.572Z,626.00
2023-02-16T06:39:31.568Z,630.00
2023-02-16T06:40:31.572Z,631.00
2023-02-16T06:41:31.966Z,634.00
2023-02-16T06:42:31.600Z,641.00
2023-02-16T06:43:31.582Z,620.00
2023-02-16T06:44:31.563Z,612.00
2023-02-16T06:45:31.573Z,617.00
2023-02-16T06:46:31.680Z,630.00
2023-02-16T06:47:31.582Z,631.00
2023-02-16T06:48:31.570Z,638.00
2023-02-16T06:49:31.570Z,630.00
2023-02-16T06:50:31.579Z,624.00
2023-02-16T06:51:31.588Z,630.00
2023-02-16T06:52:31.643Z,633.00
2023-02-16T06:53:31.574Z,638.00
2023-02-16T06:54:31.582Z,642.00
2023-02-16T06:55:31.594Z,630.00
2023-02-16T06:56:31.597Z,630.00
2023-02-16T06:57:31.618Z,637.00
2023-02-16T06:58:31.609Z,646.00
2023-02-16T06:59:31.599Z,642.00
2023-02-16T07:00:31.608Z,646.00
2023-02-16T07:01:31.591Z,632.00
2023-02-16T07:02:31.588Z,624.00
2023-02-16T07:03:31.675Z,626.00
2023-02-16T07:04:31.596Z,635.00
2023-02-16T07:05:31.599Z,636.00
2023-02-16T07:06:31.584Z,635.00
2023-02-16T07:07:31.619Z,635.00
2023-02-16T07:08:31.590Z,635.00
2023-02-16T07:09:31.584Z,638.00
2023-02-16T07:10:43.929Z,642.00
2023-02-16T07:11:32.595Z,642.00
2023-02-16T07:12:31.607Z,642.00
2023-02-16T07:13:31.597Z,636.00
2023-02-16T07:14:31.613Z,640.00
2023-02-16T07:15:31.599Z,642.00
2023-02-16T07:16:31.675Z,646.00
2023-02-16T07:17:31.597Z,646.00
2023-02-16T07:18:31.598Z,638.00
2023-02-16T07:19:31.598Z,641.00
2023-02-16T07:20:31.604Z,637.00
2023-02-16T07:21:31.654Z,636.00
2023-02-16T07:22:31.590Z,642.00
2023-02-16T07:23:31.586Z,646.00
2023-02-16T07:24:31.595Z,629.00
2023-02-16T07:25:31.595Z,619.00
2023-02-16T07:26:31.592Z,622.00
2023-02-16T07:27:31.579Z,635.00
2023-02-16T07:28:31.576Z,641.00
2023-02-16T07:29:31.580Z,636.00
2023-02-16T07:30:31.628Z,627.00
2023-02-16T07:31:31.714Z,629.00
2023-02-16T07:32:31.571Z,631.00
2023-02-16T07:33:31.575Z,631.00
2023-02-16T07:34:31.571Z,638.00
2023-02-16T07:35:31.569Z,633.00
2023-02-16T07:36:31.570Z,631.00
2023-02-16T07:37:31.561Z,618.00
2023-02-16T07:38:31.565Z,624.00
2023-02-16T07:39:31.557Z,631.00
2023-02-16T07:40:31.564Z,637.00
2023-02-16T07:41:31.563Z,632.00
2023-02-16T07:42:31.551Z,619.00
2023-02-16T07:43:31.580Z,625.00
2023-02-16T07:44:31.555Z,620.00
2023-02-16T07:45:31.586Z,629.00
2023-02-16T07:46:33.334Z,630.00
2023-02-16T07:47:31.559Z,619.00
2023-02-16T07:48:31.557Z,620.00
2023-02-16T07:49:31.557Z,624.00
2023-02-16T07:50:31.553Z,632.00
2023-02-16T07:51:31.559Z,630.00
2023-02-16T07:52:31.563Z,629.00
2023-02-16T07:53:32.031Z,622.00
2023-02-16T07:54:31.563Z,608.00
2023-02-16T07:55:31.567Z,615.00
2023-02-16T07:56:31.567Z,620.00
2023-02-16T07:57:31.569Z,624.00
2023-02-16T07:58:31.576Z,628.00
2023-02-16T07:59:31.584Z,623.00
2023-02-16T08:00:31.575Z,634.00
2023-02-16T08:01:31.605Z,630.00
2023-02-16T08:02:31.689Z,635.00
2023-02-16T08:03:31.573Z,639.00
2023-02-16T08:04:31.574Z,626.00
2023-02-16T08:05:31.554Z,613.00
2023-02-16T08:06:31.551Z,619.00
2023-02-16T08:07:31.550Z,623.00
2023-02-16T08:08:31.559Z,627.00
2023-02-16T08:09:31.554Z,632.00
2023-02-16T08:10:31.557Z,625.00
2023-02-16T08:11:31.765Z,612.00
2023-02-16T08:12:32.526Z,621.00
2023-02-16T08:13:31.532Z,619.00
2023-02-16T08:14:31.635Z,629.00
2023-02-16T08:15:31.532Z,620.00
2023-02-16T08:16:31.565Z,620.00
2023-02-16T08:17:31.522Z,623.00
2023-02-16T08:18:31.574Z,622.00
2023-02-16T08:19:31.504Z,628.00
2023-02-16T08:20:48.284Z,630.00
2023-02-16T08:21:32.497Z,630.00
2023-02-16T08:22:31.490Z,630.00
2023-02-16T08:23:31.767Z,631.00
2023-02-16T08:24:31.479Z,629.00
2023-02-16T08:25:31.465Z,627.00
2023-02-16T08:26:31.448Z,630.00
2023-02-16T08:27:31.447Z,629.00
2023-02-16T08:28:31.422Z,622.00
2023-02-16T08:29:31.421Z,615.00
2023-02-16T08:30:31.478Z,615.00
2023-02-16T08:31:31.559Z,617.00
2023-02-16T08:32:31.485Z,621.00
2023-02-16T08:33:31.391Z,617.00
2023-02-16T08:34:31.355Z,613.00
2023-02-16T08:35:31.359Z,626.00
2023-02-16T08:36:31.344Z,630.00
2023-02-16T08:37:31.334Z,631.00
2023-02-16T08:38:31.329Z,630.00
2023-02-16T08:39:31.339Z,621.00
2023-02-16T08:40:31.303Z,622.00
2023-02-16T08:41:31.310Z,623.00
2023-02-16T08:42:31.300Z,625.00
2023-02-16T08:43:31.282Z,623.00
2023-02-16T08:44:31.325Z,617.00
2023-02-16T08:45:31.304Z,618.00
2023-02-16T08:46:31.245Z,620.00
2023-02-16T08:47:31.248Z,623.00
2023-02-16T08:48:31.225Z,617.00
2023-02-16T08:49:31.218Z,603.00
2023-02-16T08:50:31.228Z,600.00
2023-02-16T08:51:31.190Z,610.00
2023-02-16T08:52:31.180Z,616.00
2023-02-16T08:53:31.174Z,619.00
2023-02-16T08:54:31.224Z,614.00
2023-02-16T08:55:31.150Z,606.00
2023-02-16T08:56:31.134Z,607.00
2023-02-16T08:57:31.113Z,613.00
2023-02-16T08:58:31.118Z,612.00
2023-02-16T08:59:31.108Z,611.00
2023-02-16T09:00:31.082Z,605.00
2023-02-16T09:01:31.169Z,610.00
2023-02-16T09:02:31.102Z,604.00
2023-02-16T09:03:31.054Z,612.00
2023-02-16T09:04:31.051Z,607.00
2023-02-16T09:05:31.033Z,606.00
2023-02-16T09:06:31.021Z,607.00
2023-02-16T09:07:31.003Z,607.00
2023-02-16T09:08:30.991Z,607.00
2023-02-16T09:09:30.995Z,602.00
2023-02-16T09:10:30.962Z,596.00
2023-02-16T09:11:30.966Z,591.00
2023-02-16T09:12:30.940Z,597.00
2023-02-16T09:13:30.930Z,594.00
2023-02-16T09:14:30.915Z,598.00
2023-02-16T09:15:30.904Z,601.00
2023-02-16T09:16:30.899Z,604.00
2023-02-16T09:17:30.853Z,604.00
2023-02-16T09:18:30.840Z,606.00
2023-02-16T09:19:30.843Z,611.00
2023-02-16T09:20:30.807Z,611.00
2023-02-16T09:21:30.810Z,609.00
2023-02-16T09:22:30.772Z,614.00
2023-02-16T09:23:30.749Z,610.00
2023-02-16T09:24:30.717Z,614.00
2023-02-16T09:25:30.708Z,614.00
2023-02-16T09:26:30.677Z,618.00
2023-02-16T09:27:30.656Z,616.00
2023-02-16T09:28:30.649Z,618.00
2023-02-16T09:29:30.626Z,618.00
2023-02-16T09:30:30.789Z,616.00
2023-02-16T09:31:30.693Z,619.00
2023-02-16T09:32:30.602Z,620.00
2023-02-16T09:33:30.551Z,623.00
2023-02-16T09:34:30.551Z,625.00
2023-02-16T09:35:30.525Z,621.00
2023-02-16T09:36:30.497Z,620.00
2023-02-16T09:37:30.495Z,625.00
2023-02-16T09:38:30.455Z,622.00
2023-02-16T09:39:30.435Z,626.00
2023-02-16T09:40:30.423Z,630.00
2023-02-16T09:41:30.397Z,625.00
2023-02-16T09:42:30.380Z,623.00
2023-02-16T09:43:30.370Z,627.00
2023-02-16T09:44:30.357Z,628.00
2023-02-16T09:45:30.330Z,622.00
2023-02-16T09:46:30.399Z,624.00
2023-02-16T09:47:30.267Z,621.00
2023-02-16T09:48:30.244Z,617.00
2023-02-16T09:49:30.285Z,615.00
2023-02-16T09:50:52.545Z,617.00
2023-02-16T09:51:34.960Z,618.00
2023-02-16T09:52:30.144Z,618.00
2023-02-16T09:53:30.145Z,618.00
2023-02-16T09:54:30.089Z,618.00
2023-02-16T09:55:30.073Z,620.00
2023-02-16T09:56:30.043Z,617.00
2023-02-16T09:57:30.028Z,615.00
2023-02-16T09:58:30.163Z,614.00
2023-02-16T09:59:29.976Z,617.00
2023-02-16T10:00:29.959Z,619.00
2023-02-16T10:01:29.933Z,617.00
2023-02-16T10:02:29.946Z,621.00
2023-02-16T10:03:29.876Z,627.00
2023-02-16T10:04:29.825Z,623.00
2023-02-16T10:05:29.814Z,622.00
2023-02-16T10:06:29.783Z,620.00
2023-02-16T10:07:29.765Z,623.00
2023-02-16T10:08:29.998Z,617.00
2023-02-16T10:09:29.697Z,619.00
2023-02-16T10:10:29.653Z,617.00
2023-02-16T10:11:29.625Z,619.00
2023-02-16T10:12:29.587Z,613.00
2023-02-16T10:13:29.590Z,620.00
2023-02-16T10:14:29.521Z,620.00
2023-02-16T10:15:29.537Z,608.00
2023-02-16T10:16:29.457Z,620.00
2023-02-16T10:17:29.423Z,610.00
2023-02-16T10:18:29.420Z,614.00
2023-02-16T10:19:29.363Z,615.00
2023-02-16T10:20:29.328Z,617.00
2023-02-16T10:21:29.299Z,620.00
2023-02-16T10:22:29.268Z,618.00
2023-02-16T10:23:29.210Z,616.00
2023-02-16T10:24:29.177Z,621.00
2023-02-16T10:25:29.139Z,612.00
2023-02-16T10:26:29.103Z,623.00
2023-02-16T10:27:29.066Z,614.00
2023-02-16T10:28:29.118Z,613.00
2023-02-16T10:29:28.985Z,620.00
2023-02-16T10:30:28.998Z,613.00
2023-02-16T10:31:28.986Z,622.00
2023-02-16T10:32:28.875Z,613.00
2023-02-16T10:33:28.853Z,616.00
2023-02-16T10:34:28.835Z,617.00
2023-02-16T10:35:28.758Z,606.00
2023-02-16T10:36:28.720Z,614.00
2023-02-16T10:37:28.684Z,613.00
2023-02-16T10:38:28.648Z,615.00
2023-02-16T10:39:28.617Z,611.00
2023-02-16T10:40:28.579Z,610.00
2023-02-16T10:41:28.547Z,616.00
2023-02-16T10:42:28.515Z,617.00
2023-02-16T10:43:28.484Z,614.00
2023-02-16T10:44:28.518Z,619.00
2023-02-16T10:45:28.463Z,616.00
2023-02-16T10:46:28.510Z,613.00
2023-02-16T10:47:28.344Z,609.00
2023-02-16T10:48:28.318Z,607.00
2023-02-16T10:49:28.279Z,609.00
2023-02-16T10:50:28.232Z,614.00
2023-02-16T10:51:28.217Z,614.00
2023-02-16T10:52:28.160Z,614.00
2023-02-16T10:53:28.120Z,607.00
2023-02-16T10:54:28.086Z,612.00
2023-02-16T10:55:28.025Z,613.00
2023-02-16T10:56:27.994Z,611.00
2023-02-16T10:57:27.960Z,606.00
2023-02-16T10:58:27.916Z,611.00
2023-02-16T10:59:27.876Z,610.00
2023-02-16T11:00:27.835Z,613.00
2023-02-16T11:01:27.808Z,609.00
2023-02-16T11:02:27.770Z,604.00
2023-02-16T11:03:27.703Z,614.00
2023-02-16T11:04:27.697Z,607.00
2023-02-16T11:05:27.637Z,614.00
2023-02-16T11:06:27.616Z,616.00
2023-02-16T11:07:27.546Z,611.00
2023-02-16T11:08:29.207Z,609.00
2023-02-16T11:09:27.470Z,610.00
2023-02-16T11:10:27.441Z,606.00
2023-02-16T11:11:27.409Z,598.00
2023-02-16T11:12:27.368Z,595.00
2023-02-16T11:13:27.312Z,602.00
2023-02-16T11:14:27.393Z,603.00
2023-02-16T11:15:27.249Z,595.00
2023-02-16T11:16:27.211Z,600.00
2023-02-16T11:17:27.167Z,600.00
2023-02-16T11:18:27.116Z,600.00
2023-02-16T11:19:27.068Z,596.00
2023-02-16T11:20:27.028Z,600.00
2023-02-16T11:21:26.975Z,602.00
2023-02-16T11:22:26.952Z,597.00
2023-02-16T11:23:26.878Z,595.00
2023-02-16T11:24:26.851Z,597.00
2023-02-16T11:25:26.816Z,583.00
2023-02-16T11:26:26.746Z,591.00
2023-02-16T11:27:26.716Z,599.00
2023-02-16T11:28:26.666Z,600.00
2023-02-16T11:29:26.628Z,591.00
2023-02-16T11:30:26.649Z,588.00
2023-02-16T11:31:26.600Z,583.00
2023-02-16T11:32:26.469Z,583.00
2023-02-16T11:33:26.435Z,580.00
2023-02-16T11:34:26.361Z,583.00
2023-02-16T11:35:26.317Z,588.00
2023-02-16T11:36:26.267Z,588.00
2023-02-16T11:37:26.221Z,574.00
2023-02-16T11:38:26.188Z,575.00
2023-02-16T11:39:26.126Z,590.00
2023-02-16T11:40:26.088Z,585.00
2023-02-16T11:41:26.033Z,585.00
2023-02-16T11:42:25.990Z,576.00
2023-02-16T11:43:25.933Z,589.00
2023-02-16T11:44:25.893Z,584.00
2023-02-16T11:45:25.834Z,574.00
2023-02-16T11:46:25.833Z,572.00
2023-02-16T11:47:25.732Z,576.00
2023-02-16T11:48:25.688Z,568.00
2023-02-16T11:49:25.634Z,564.00
2023-02-16T11:50:25.584Z,564.00
2023-02-16T11:51:25.517Z,572.00
2023-02-16T11:52:25.486Z,564.00
2023-02-16T11:53:25.426Z,573.00
2023-02-16T11:54:25.376Z,566.00
2023-02-16T11:55:25.328Z,565.00
2023-02-16T11:56:25.290Z,556.00
2023-02-16T11:57:25.229Z,563.00
2023-02-16T11:58:25.196Z,563.00
2023-02-16T11:59:25.129Z,566.00
2023-02-16T12:00:25.088Z,550.00
2023-02-16T12:01:25.034Z,559.00
2023-02-16T12:02:24.993Z,552.00
2023-02-16T12:03:24.936Z,553.00
2023-02-16T12:04:24.906Z,555.00
2023-02-16T12:05:24.876Z,558.00
2023-02-16T12:06:24.799Z,559.00
2023-02-16T12:07:24.763Z,553.00
2023-02-16T12:08:24.720Z,555.00
2023-02-16T12:09:24.668Z,560.00
2023-02-16T12:10:24.631Z,560.00
2023-02-16T12:11:24.596Z,563.00
2023-02-16T12:12:24.550Z,564.00
2023-02-16T12:13:24.506Z,550.00
2023-02-16T12:14:24.474Z,541.00
2023-02-16T12:15:24.419Z,559.00
2023-02-16T12:16:24.427Z,565.00
2023-02-16T12:17:24.351Z,554.00
2023-02-16T12:18:24.319Z,545.00
2023-02-16T12:19:24.268Z,552.00
2023-02-16T12:20:24.238Z,565.00
2023-02-16T12:21:24.190Z,571.00
2023-02-16T12:22:24.158Z,548.00
2023-02-16T12:23:24.126Z,545.00
2023-02-16T12:24:24.088Z,543.00
2023-02-16T12:25:24.048Z,540.00
2023-02-16T12:26:24.031Z,553.00
2023-02-16T12:27:23.965Z,566.00
2023-02-16T12:28:24.033Z,569.00